Time;durP1;ratioP1;P1;durP2;ratioP2;P2;SDS_P1;SDS_P2;PMS_P1;PMS_P2;Temp;Humidity;BMP_temperature;BMP_pressure;BME280_temperature;BME280_humidity;BME280_pressure;Samples;Min_cycle;Max_cycle;Signal;HPM_P1;HPM_P2
2022/07/03 00:00:25;;;;;;;7.95;5.40;;;;;;;;;;4885360;28;20511;-65
2022/07/03 00:02:52;;;;;;;5.25;4.68;;;;;;;;;;4892006;28;20995;-63
2022/07/03 00:05:45;;;;;;;7.43;4.63;;;;;;;;;;4900425;28;20615;-65
2022/07/03 00:08:11;;;;;;;8.50;5.82;;;;;;;;;;4902431;28;20522;-63
2022/07/03 00:11:04;;;;;;;14.75;5.40;;;;;;;;;;4896420;28;20589;-62
2022/07/03 00:13:32;;;;;;;6.40;4.90;;;;;;;;;;4902635;28;20566;-64
2022/07/03 00:15:58;;;;;;;9.68;5.28;;;;;;;;;;4922363;28;20350;-69
2022/07/03 00:18:24;;;;;;;7.90;4.43;;;;;;;;;;5073698;28;20086;-68
2022/07/03 00:20:55;;;;;;;7.18;5.13;;;;;;;;;;5076765;28;20082;-68
2022/07/03 00:23:21;;;;;;;;;;;;;;;;;;5085672;28;20071;-69
2022/07/03 00:25:49;;;;;;;8.02;4.60;;;;;;;;;;5094119;28;19909;-68
2022/07/03 00:28:18;;;;;;;6.32;4.78;;;;;;;;;;5075475;28;20370;-68
2022/07/03 00:30:46;;;;;;;7.28;4.70;;;;;;;;;;5093993;28;20024;-67
2022/07/03 00:33:13;;;;;;;6.88;4.78;;;;;;;;;;5094162;28;20036;-67
2022/07/03 00:35:40;;;;;;;8.23;5.03;;;;;;;;;;5094040;28;20020;-67
2022/07/03 00:38:06;;;;;;;6.38;4.15;;;;;;;;;;5093946;28;20035;-67
2022/07/03 00:40:32;;;;;;;6.40;4.97;;;;;;;;;;5093718;28;20062;-73
2022/07/03 00:43:00;;;;;;;7.72;4.30;;;;;;;;;;5093624;28;20044;-68
2022/07/03 00:45:26;;;;;;;6.13;4.90;;;;;;;;;;5094028;28;20077;-67
2022/07/03 00:47:52;;;;;;;9.00;4.72;;;;;;;;;;5093638;28;20046;-67
2022/07/03 00:50:24;;;;;;;11.40;5.15;;;;;;;;;;5093955;28;20430;-70
2022/07/03 00:52:52;;;;;;;13.55;4.95;;;;;;;;;;5074980;28;20489;-72
2022/07/03 00:55:19;;;;;;;6.05;4.80;;;;;;;;;;5093476;28;20059;-74
2022/07/03 00:57:46;;;;;;;6.85;4.68;;;;;;;;;;5093824;28;20392;-73
2022/07/03 01:00:14;;;;;;;6.63;4.93;;;;;;;;;;5093680;28;20020;-71
2022/07/03 01:02:58;;;;;;;5.85;4.80;;;;;;;;;;5093565;28;20020;-72
2022/07/03 01:05:24;;;;;;;5.85;4.90;;;;;;;;;;5093405;28;20059;-68
2022/07/03 01:07:53;;;;;;;6.53;4.25;;;;;;;;;;5093386;28;20028;-67
2022/07/03 01:10:22;;;;;;;13.20;5.05;;;;;;;;;;5093444;28;20024;-67
2022/07/03 01:12:56;;;;;;;7.15;4.60;;;;;;;;;;5093248;28;20056;-72
2022/07/03 01:15:38;;;;;;;7.85;4.43;;;;;;;;;;5093167;28;20028;-67
2022/07/03 01:18:04;;;;;;;;;;;;;;;;;;5093783;28;20440;-66
2022/07/03 01:20:31;;;;;;;11.93;5.30;;;;;;;;;;5093160;28;19904;-66
2022/07/03 01:22:59;;;;;;;6.20;4.18;;;;;;;;;;5093132;28;20039;-65
2022/07/03 01:25:25;;;;;;;6.57;5.03;;;;;;;;;;5093065;28;20039;-65
2022/07/03 01:28:10;;;;;;;7.03;4.90;;;;;;;;;;5093072;28;20039;-65
2022/07/03 01:30:40;;;;;;;7.63;4.82;;;;;;;;;;5093143;28;20020;-65
2022/07/03 01:33:12;;;;;;;6.07;4.80;;;;;;;;;;5092943;28;20024;-65
2022/07/03 01:35:42;;;;;;;10.20;5.30;;;;;;;;;;5092953;28;20027;-69
2022/07/03 01:38:10;;;;;;;6.43;4.88;;;;;;;;;;5092976;28;20493;-70
2022/07/03 01:40:37;;;;;;;6.22;4.78;;;;;;;;;;5092881;28;20027;-65
2022/07/03 01:43:04;;;;;;;9.38;5.07;;;;;;;;;;5092743;28;20049;-67
2022/07/03 01:45:32;;;;;;;7.07;4.45;;;;;;;;;;5092852;28;20016;-66
2022/07/03 01:47:58;;;;;;;14.13;7.85;;;;;;;;;;5092798;28;20039;-65
2022/07/03 01:50:25;;;;;;;10.57;5.15;;;;;;;;;;5093001;28;20118;-67
2022/07/03 01:52:52;;;;;;;8.40;5.15;;;;;;;;;;5093038;28;20486;-67
2022/07/03 01:55:19;;;;;;;10.13;5.15;;;;;;;;;;5092758;28;20115;-66
2022/07/03 01:57:46;;;;;;;5.47;4.47;;;;;;;;;;5092873;28;20119;-67
2022/07/03 02:00:13;;;;;;;9.63;4.80;;;;;;;;;;5092743;28;20420;-68
2022/07/03 02:03:05;;;;;;;6.40;4.35;;;;;;;;;;5092790;28;20024;-67
2022/07/03 02:05:37;;;;;;;6.55;5.07;;;;;;;;;;5088420;28;20342;-67
2022/07/03 02:08:07;;;;;;;10.63;4.53;;;;;;;;;;5092668;28;20384;-69
2022/07/03 02:10:47;;;;;;;9.40;4.78;;;;;;;;;;5092583;28;20028;-66
2022/07/03 02:13:17;;;;;;;8.25;4.80;;;;;;;;;;5092632;28;20485;-67
2022/07/03 02:15:45;;;;;;;6.53;4.90;;;615.00;2406.40;;;;;;5092559;28;20098;-67
2022/07/03 02:18:27;;;;;;;8.35;4.45;;;;;;;;;;5092666;28;20028;-66
2022/07/03 02:21:13;;;;;;;9.45;5.05;;;;;;;;;;5092756;28;20028;-69
2022/07/03 02:23:59;;;;;;;6.70;4.78;;;;;;;;;;5092526;28;20028;-71
2022/07/03 02:26:30;;;;;;;7.90;4.82;;;;;;;;;;5077444;28;20067;-68
2022/07/03 02:29:03;;;;;;;5.65;4.53;;;;;;;;;;5096428;28;20032;-67
2022/07/03 02:31:32;;;;;;;7.65;4.80;;;;;;;;;;5096317;28;20056;-66
2022/07/03 02:33:59;;;;;;;7.45;4.35;;;;;;;;;;5096500;28;20416;-69
2022/07/03 02:36:29;;;;;;;6.18;4.32;;;;;;;;;;5096167;28;20020;-69
2022/07/03 02:38:58;;;;;;;6.63;5.22;;;;;;;;;;5096159;28;20028;-71
2022/07/03 02:41:25;;;;;;;6.03;4.40;;;;;;;;;;5096145;28;20013;-66
2022/07/03 02:44:10;;;;;;;8.50;4.97;;;;;;;;;;5095930;28;20055;-73
2022/07/03 02:46:50;;;;;;;8.32;4.50;;;;;;;;;;5095951;28;20035;-67
2022/07/03 02:49:28;;;;;;;7.47;4.57;;;;;;;;;;5096034;28;20048;-73
2022/07/03 02:52:13;;;;;;;5.90;4.32;;;;;;;;;;5077846;28;20474;-73
2022/07/03 02:54:45;;;;;;;7.22;4.28;;;;;;;;;;5095884;28;20030;-66
2022/07/03 02:57:13;;;;;;;5.28;4.60;;;;;;;;;;5095756;28;20021;-74
2022/07/03 02:59:50;;;;;;;5.20;4.20;;;;;;;;;;5095878;28;20024;-66
2022/07/03 03:02:22;;;;;;;10.00;4.60;;;;;;;;;;5095681;28;20028;-69
2022/07/03 03:05:04;;;;;;;6.00;5.15;;;;;;;;;;5095869;28;20360;-73
2022/07/03 03:07:34;;;;;;;10.45;5.20;;;;;;;;;;5095525;28;20032;-76
2022/07/03 03:10:00;;;;;;;4.43;3.33;;;;;;;;;;5095762;28;20424;-68
2022/07/03 03:12:46;;;;;;;7.55;4.90;;;;;;;;;;5095653;28;20106;-73
2022/07/03 03:15:13;;;;;;;7.47;4.95;;;;;;;;;;5095233;28;20040;-73
2022/07/03 03:17:43;;;;;;;7.82;5.13;;;;;;;;;;5095425;28;20114;-67
2022/07/03 03:20:10;;;;;;;7.80;4.60;;;;;;;;;;5095323;28;20028;-71
2022/07/03 03:22:36;;;;;;;9.27;5.35;;;;;;;;;;5095468;28;20035;-66
2022/07/03 03:25:03;;;;;;;10.23;5.30;;;;;;;;;;5095167;28;20036;-75
2022/07/03 03:27:29;;;;;;;10.95;5.85;;;;;;;;;;5095273;28;20386;-72
2022/07/03 03:29:55;;;;;;;7.47;5.57;;;;;;;;;;5095209;28;20109;-75
2022/07/03 03:32:22;;;;;;;9.73;5.38;;;;;;;;;;5095127;28;20385;-68
2022/07/03 03:34:49;;;;;;;8.30;5.45;;;;;;;;;;5095142;28;20028;-75
2022/07/03 03:37:16;;;;;;;9.23;4.82;;;;;;;;;;5094874;28;20030;-66
2022/07/03 03:39:42;;;;;;;7.30;4.78;;;;;;;;;;5095069;28;20478;-67
2022/07/03 03:42:08;;;;;;;7.72;4.88;;;;;;;;;;5094794;28;20505;-67
2022/07/03 03:44:34;;;;;;;6.10;5.00;;;;;;;;;;5095009;28;20051;-66
2022/07/03 03:47:00;;;;;;;9.80;4.75;;;;;;;;;;5094962;28;20028;-73
2022/07/03 03:49:27;;;;;;;7.45;5.13;;;;;;;;;;5094909;28;20077;-73
2022/07/03 03:51:53;;;;;;;8.65;5.50;;;;;;;;;;5094879;28;20432;-66
2022/07/03 03:54:19;;;;;;;7.22;4.80;;;;;;;;;;5094649;28;20024;-68
2022/07/03 03:56:45;;;;;;;8.35;5.15;;;;;;;;;;5094643;28;20028;-73
2022/07/03 03:59:11;;;;;;;6.85;4.80;;;;;;;;;;5094772;28;20481;-71
2022/07/03 04:01:37;;;;;;;6.60;5.00;;;;;;;;;;5094685;28;20057;-67
2022/07/03 04:04:03;;;;;;;12.38;5.45;;;;;;;;;;5094712;28;20039;-72
2022/07/03 04:06:29;;;;;;;5.65;4.78;;;;;;;;;;5094504;28;20027;-66
2022/07/03 04:08:55;;;;;;;7.60;4.57;;;;;;;;;;5094516;28;20036;-66
2022/07/03 04:11:21;;;;;;;7.40;5.32;;;;;;;;;;5094340;28;20017;-66
2022/07/03 04:13:48;;;;;;;7.40;5.00;;;;;;;;;;5094473;28;20655;-66
2022/07/03 04:16:14;;;;;;;7.38;5.15;;;;;;;;;;5094402;28;20046;-66
2022/07/03 04:18:40;;;;;;;6.45;5.28;;;;;;;;;;5094287;28;20047;-70
2022/07/03 04:21:06;;;;;;;8.38;5.13;;;;;;;;;;5094526;28;20016;-71
2022/07/03 04:23:32;;;;;;;6.35;4.75;;;;;;;;;;5094499;28;20424;-75
2022/07/03 04:26:05;;;;;;;8.70;4.78;;;;;;;;;;5075894;28;20032;-75
2022/07/03 04:28:31;;;;;;;10.63;5.20;;;;;;;;;;5094127;28;20071;-76
2022/07/03 04:30:58;;;;;;;8.38;5.28;;;;;;;;;;5094173;28;20032;-76
2022/07/03 04:33:24;;;;;;;7.13;5.30;;;;;;;;;;5094095;28;20379;-75
2022/07/03 04:35:50;;;;;;;7.70;5.38;;;;;;;;;;5093933;28;20020;-66
2022/07/03 04:38:16;;;;;;;12.45;5.68;;;;;;;;;;5094005;28;20031;-67
2022/07/03 04:40:42;;;;;;;9.85;5.68;;;;;;;;;;5093788;28;20016;-66
2022/07/03 04:43:08;;;;;;;8.68;4.78;;;;;;;;;;5093730;28;20044;-70
2022/07/03 04:45:34;;;;;;;6.45;5.50;;;;;;;;;;5093820;28;20549;-71
2022/07/03 04:48:00;;;;;;;7.75;4.90;;;;;;;;;;5093235;28;20040;-68
2022/07/03 04:50:26;;;;;;;9.30;5.38;;;;;;;;;;5093737;28;20161;-66
2022/07/03 04:52:52;;;;;;;5.68;5.07;;;;;;;;;;5093678;28;20028;-67
2022/07/03 04:55:18;;;;;;;11.20;5.28;;;;;;;;;;5093610;28;20032;-71
2022/07/03 04:57:44;;;;;;;8.45;5.40;;;;;;;;;;5093558;28;20107;-74
2022/07/03 05:00:11;;;;;;;12.65;6.03;;;;;;;;;;5093508;28;20020;-68
2022/07/03 05:02:37;;;;;;;8.60;5.70;;;;;;;;;;5093604;28;20089;-75
2022/07/03 05:05:03;;;;;;;8.68;5.22;;;;;;;;;;5093595;28;20016;-67
2022/07/03 05:07:29;;;;;;;7.25;4.97;;;;;;;;;;5093340;28;20064;-66
2022/07/03 05:09:55;;;;;;;5.43;4.50;;;;;;;;;;5093557;28;20027;-67
2022/07/03 05:12:21;;;;;;;9.60;5.00;;;;;;;;;;5093265;28;20065;-66
2022/07/03 05:14:47;;;;;;;8.30;5.07;;;;;;;;;;5093545;28;20020;-71
2022/07/03 05:17:13;;;;;;;8.10;4.95;;;;;;;;;;5093369;28;20027;-66
2022/07/03 05:19:39;;;;;;;8.60;5.28;;;;;;;;;;5093306;28;20047;-67
2022/07/03 05:22:05;;;;;;;7.50;4.88;;;;;;;;;;5093380;28;20020;-68
2022/07/03 05:24:32;;;;;;;8.32;4.97;;;;;;;;;;5093439;28;20028;-70
2022/07/03 05:26:58;;;;;;;9.23;4.80;;;;;;;;;;5093060;28;20138;-66
2022/07/03 05:29:24;;;;;;;5.35;4.68;;;;;;;;;;5093311;28;20027;-74
2022/07/03 05:31:50;;;;;;;11.65;5.50;;;;;;;;;;5093181;28;20016;-71
2022/07/03 05:34:16;;;;;;;8.20;4.97;;;;;;;;;;5093097;28;20020;-73
2022/07/03 05:36:42;;;;;;;8.23;5.32;;;;;;;;;;5092939;28;20027;-74
2022/07/03 05:41:52;;;;;;;10.48;4.88;;;;;;;;;;5093028;28;20039;-68
2022/07/03 05:44:18;;;;;;;8.10;5.65;;;;;;;;;;5093064;28;20024;-68
2022/07/03 05:46:44;;;;;;;6.40;5.72;;;;;;;;;;5092063;28;20039;-75
2022/07/03 05:49:11;;;;;;;8.35;5.45;;;;;;;;;;5092888;28;20094;-67
2022/07/03 05:51:37;;;;;;;8.73;5.72;;;;;;;;;;5093043;28;20066;-67
2022/07/03 05:54:03;;;;;;;5.50;4.63;;;;;;;;;;5108164;28;20036;-70
2022/07/03 05:56:29;;;;;;;6.00;5.28;;;;;;;;;;5092947;28;20047;-74
2022/07/03 05:58:55;;;;;;;8.15;5.32;;;;;;;;;;5092902;28;20111;-71
2022/07/03 06:01:23;;;;;;;9.23;5.80;;;;;;;;;;5108569;28;20485;-68
2022/07/03 06:03:49;;;;;;;6.18;5.40;;;;;;;;;;5097031;28;20102;-72
2022/07/03 06:06:15;;;;;;;9.25;5.80;;;;;;;;;;5096813;28;20104;-67
2022/07/03 06:08:41;;;;;;;6.25;5.07;;;;;;;;;;5096853;28;20039;-68
2022/07/03 06:11:07;;;;;;;9.05;5.25;;;;;;;;;;5097155;28;20374;-67
2022/07/03 06:13:34;;;;;;;8.43;5.38;;;;;;;;;;5096518;28;20020;-69
2022/07/03 06:16:00;;;;;;;8.45;5.45;;;;;;;;;;5096766;28;20012;-74
2022/07/03 06:18:26;;;;;;;7.18;4.63;;;;;;;;;;5096828;28;20028;-67
2022/07/03 06:20:52;;;;;;;11.15;4.85;;;;;;;;;;5096549;28;20458;-74
2022/07/03 06:23:18;;;;;;;7.40;5.28;;;;;;;;;;5096447;28;20032;-73
2022/07/03 06:25:44;;;;;;;8.77;4.60;;;;;;;;;;5096668;28;20509;-68
2022/07/03 06:28:10;;;;;;;7.95;5.07;;;;;;;;;;5096281;28;20401;-69
2022/07/03 06:30:36;;;;;;;12.27;5.68;;;;;;;;;;5096388;28;20081;-74
2022/07/03 06:33:03;;;;;;;5.32;4.40;;;;;;;;;;5096382;28;20063;-72
2022/07/03 06:35:29;;;;;;;8.45;4.57;;;;;;;;;;5096346;28;20028;-74
2022/07/03 06:37:55;;;;;;;6.90;4.38;;;;;;;;;;5096244;28;20020;-70
2022/07/03 06:40:21;;;;;;;7.20;4.60;;;;;;;;;;5096406;28;20019;-71
2022/07/03 06:42:47;;;;;;;7.25;4.50;;;;;;;;;;5096109;28;20051;-75
2022/07/03 06:45:13;;;;;;;6.60;4.47;;;;;;;;;;5096122;28;20415;-74
2022/07/03 06:47:39;;;;;;;7.63;4.40;;;;;;;;;;5095452;28;20059;-74
2022/07/03 06:50:06;;;;;;;8.65;4.75;;;;;;;;;;5095543;28;20024;-67
2022/07/03 06:52:32;;;;;;;7.88;4.50;;;;;;;;;;5094951;28;20028;-73
2022/07/03 06:54:58;;;;;;;7.72;4.63;;;;;;;;;;5088548;28;20035;-72
2022/07/03 06:57:24;;;;;;;9.90;4.95;;;;;;;;;;5075588;28;20029;-72
2022/07/03 06:59:50;;;;;;;8.55;4.70;;;;;;;;;;5075726;28;20058;-71
2022/07/03 07:02:16;;;;;;;6.85;4.82;;;;;;;;;;5075539;28;20068;-71
2022/07/03 07:04:42;;;;;;;10.35;5.45;;;;;;;;;;5075578;28;20029;-71
2022/07/03 07:07:08;;;;;;;12.07;7.30;;;;;;;;;;5075235;28;20470;-72
2022/07/03 07:09:34;;;;;;;5.78;4.70;;;;;;;;;;5075499;28;20662;-71
2022/07/03 07:12:00;;;;;;;5.47;4.93;;;;;;;;;;5074415;28;20025;-71
2022/07/03 07:14:26;;;;;;;7.32;5.30;;;;;;;;;;5075304;28;20103;-71
2022/07/03 07:16:52;;;;;;;11.93;6.00;;;;;;;;;;5075257;28;20031;-72
2022/07/03 07:19:18;;;;;;;11.85;5.05;;;;;;;;;;5075297;28;20073;-72
2022/07/03 07:21:45;;;;;;;15.75;5.55;;;;;;;;;;5075071;28;20090;-72
2022/07/03 07:24:12;;;;;;;9.63;6.72;;;;;;;;;;5075001;28;20040;-72
2022/07/03 07:26:38;;;;;;;7.50;5.55;;;;;;;;;;5075140;28;20075;-68
2022/07/03 07:29:04;;;;;;;10.55;5.40;;;;;;;;;;5076005;28;20056;-69
2022/07/03 07:31:30;;;;;;;10.52;5.68;;;;;;;;;;5091498;28;20479;-73
2022/07/03 07:33:56;;;;;;;8.63;5.25;;;;;;;;;;5095248;28;20034;-77
2022/07/03 07:36:22;;;;;;;5.28;4.38;;;;;;;;;;5095080;28;20073;-75
2022/07/03 07:38:48;;;;;;;7.78;4.68;;;;;;;;;;5095118;28;20032;-74
2022/07/03 07:41:14;;;;;;;9.57;5.18;;;;;;;;;;5095077;28;20051;-73
2022/07/03 07:43:40;;;;;;;8.75;4.47;;;;;;;;;;5094767;28;20083;-69
2022/07/03 07:46:06;;;;;;;7.20;5.50;;;;;;;;;;5094944;28;20020;-74
2022/07/03 07:48:34;;;;;;;8.95;5.30;;;;;;;;;;5076715;28;20048;-72
2022/07/03 07:51:00;;;;;;;8.35;5.28;;;;;;;;;;5094967;28;20044;-73
2022/07/03 07:53:27;;;;;;;9.75;5.05;;;;;;;;;;5092180;28;20117;-67
2022/07/03 07:55:53;;;;;;;7.80;5.63;;;;;;;;;;5095011;28;20543;-69
2022/07/03 07:58:19;;;;;;;7.65;4.57;;;;;;;;;;5094747;28;20111;-70
2022/07/03 08:06:15;;;;;;;9.63;6.10;;;;;;;;;;5074396;28;20036;-72
2022/07/03 08:08:41;;;;;;;10.27;5.20;;;;;;;;;;5074179;28;20072;-67
2022/07/03 08:11:07;;;;;;;7.30;5.00;;;;;;;;;;5074085;28;20024;-73
2022/07/03 08:13:33;;;;;;;7.15;5.57;;;;;;;;;;5086525;28;20028;-72
2022/07/03 08:16:00;;;;;;;7.82;5.72;;;;;;;;;;5093283;28;20043;-67
2022/07/03 08:18:26;;;;;;;5.85;4.85;;;;;;;;;;5093435;28;20024;-73
2022/07/03 08:20:52;;;;;;;9.80;5.15;;;;;;;;;;5093848;28;20047;-69
2022/07/03 08:23:18;;;;;;;6.82;5.57;;;;;;;;;;5093315;28;20069;-73
2022/07/03 08:25:44;;;;;;;28.58;22.00;;;;;;;;;;5093851;28;20386;-65
2022/07/03 08:28:10;;;;;;;88.65;61.80;;;;;;;;;;5093933;28;20039;-68
2022/07/03 08:30:37;;;;;;;200.90;158.85;;;;;;;;;;5093627;28;20466;-66
2022/07/03 08:33:03;;;;;;;32.83;24.85;;;;;;;;;;5093424;28;20490;-65
2022/07/03 08:35:29;;;;;;;85.93;61.58;;;;;;;;;;5093582;28;20055;-64
2022/07/03 08:37:55;;;;;;;79.57;61.85;;;;;;;;;;5093652;28;20556;-67
2022/07/03 08:40:22;;;;;;;80.38;60.97;;;;;;;;;;5093675;28;20081;-66
2022/07/03 08:42:50;;;;;;;41.53;30.75;;;;;;;;;;5092928;28;20153;-65
2022/07/03 08:45:17;;;;;;;24.40;17.33;;;;;;;;;;5086487;28;20094;-66
2022/07/03 08:47:44;;;;;;;16.48;10.68;;;;;;;;;;5093021;28;20036;-65
2022/07/03 08:50:14;;;;;;;24.25;17.75;;;;;;;;;;5093046;28;20016;-67
2022/07/03 08:52:40;;;;;;;23.60;18.48;;;;;;;;;;5093044;28;20101;-71
2022/07/03 08:55:07;;;;;;;36.10;28.20;;;;;;;;;;5093234;28;20368;-68
2022/07/03 08:57:33;;;;;;;29.25;20.50;;;;;;;;;;5092875;28;20453;-68
2022/07/03 09:00:02;;;;;;;42.67;33.47;;;;;;;;;;5093157;28;20024;-73
2022/07/03 09:02:28;;;;;;;13.50;11.10;;;;;;;;;;5091904;28;20024;-67
2022/07/03 09:04:56;;;;;;;16.38;12.77;;;;;;;;;;5092291;28;20082;-69
2022/07/03 09:07:24;;;;;;;49.60;40.13;;;;;;;;;;5092810;28;20036;-70
2022/07/03 09:09:51;;;;;;;44.75;34.28;;;;;;;;;;5091825;28;20023;-65
2022/07/03 09:12:18;;;;;;;57.20;44.15;;;;;;;;;;5093220;28;20028;-65
2022/07/03 09:14:44;;;;;;;31.23;26.05;;;;;;;;;;5092597;28;20111;-64
2022/07/03 09:17:11;;;;;;;13.43;9.05;;;;;;;;;;5092473;28;20028;-72
2022/07/03 09:19:43;;;;;;;27.85;16.83;;;;;;;;;;5092505;28;20414;-66
2022/07/03 09:22:30;;;;;;;21.40;15.68;;;;;;;;;;5092424;28;20027;-65
2022/07/03 09:25:06;;;;;;;12.55;8.05;;;;;;;;;;5091161;28;20111;-66
2022/07/03 09:27:33;;;;;;;25.17;18.42;;;;;;;;;;5092444;28;20477;-64
2022/07/03 09:30:02;;;;;;;59.13;49.17;;;;;;;;;;5091761;28;20056;-70
2022/07/03 09:32:43;;;;;;;77.65;69.10;;;;;;;;;;5092422;28;20077;-71
2022/07/03 09:35:17;;;;;;;20.65;16.25;;;;;;;;;;5090806;28;20384;-64
2022/07/03 09:37:59;;;;;;;18.80;15.52;;;;;;;;;;5092524;28;20099;-69
2022/07/03 09:40:30;;;;;;;14.20;11.43;;;;;;;;;;5091394;28;20058;-63
2022/07/03 09:42:59;;;;;;;25.00;20.13;;;;;;;;;;5092140;28;20497;-65
2022/07/03 09:45:25;;;;;;;20.42;14.80;;;;;;;;;;5092051;28;20047;-65
2022/07/03 09:47:51;;;;;;;18.00;13.23;;;;;;;;;;5092207;28;20062;-65
2022/07/03 09:50:17;;;;;;;21.13;15.48;;;;;;;;;;5092329;28;20020;-65
2022/07/03 09:52:44;;;;;;;35.53;27.10;;;;;;;;;;5074017;28;20032;-70
2022/07/03 09:55:10;;;;;;;23.63;17.58;;;;;;;;;;5092093;28;20028;-64
2022/07/03 09:57:36;;;;;;;37.33;31.42;;;;;;;;;;5092084;28;20091;-64
2022/07/03 10:00:16;;;;;;;30.08;19.90;;;;;;;;;;5092268;28;20024;-65
2022/07/03 10:02:54;;;;;;;13.20;11.55;;;;;;;;;;5092332;28;20027;-65
2022/07/03 10:05:21;;;;;;;19.75;15.38;;;;;;;;;;5092387;28;20031;-65
2022/07/03 10:07:51;;;;;;;12.90;10.57;;;;;;;;;;5092198;28;20469;-66
2022/07/03 10:10:19;;;;;;;20.67;12.88;;;;;;;;;;5092551;28;20023;-66
2022/07/03 10:12:46;;;;;;;8.25;7.47;;;;;;;;;;5092301;28;20369;-65
2022/07/03 10:15:13;;;;;;;10.95;9.32;;;;;;;;;;5091049;28;20024;-65
2022/07/03 10:17:39;;;;;;;12.90;9.65;;;;;;;;;;5092216;28;20032;-66
2022/07/03 10:20:05;;;;;;;18.40;9.90;;;;;;;;;;5092195;28;20020;-65
2022/07/03 10:22:33;;;;;;;14.40;10.25;;;;;;;;;;5092318;28;20474;-67
2022/07/03 10:25:00;;;;;;;31.13;26.33;;;;;;;;;;5092252;28;20070;-65
2022/07/03 10:27:27;;;;;;;18.77;16.77;;;;;;;;;;5092181;28;20043;-70
2022/07/03 10:29:55;;;;;;;16.20;12.48;;;;;;;;;;5092177;28;20488;-67
2022/07/03 10:32:21;;;;;;;16.60;12.60;;;;;;;;;;5092188;28;20059;-72
2022/07/03 10:34:48;;;;;;;14.02;11.35;;;;;;;;;;5092239;28;20024;-65
2022/07/03 10:37:16;;;;;;;13.65;8.20;;;;;;;;;;5092120;28;20103;-65
2022/07/03 10:45:37;;;;;;;14.90;9.07;;;;;;;;;;5048133;28;20075;-71
2022/07/03 10:48:03;;;;;;;20.40;9.00;;;;;;;;;;5052218;28;20049;-72
2022/07/03 10:50:29;;;;;;;17.10;9.35;;;;;;;;;;5053321;28;20040;-74
2022/07/03 10:53:15;;;;;;;14.07;8.85;;;;;;;;;;5052183;28;20047;-75
2022/07/03 10:56:03;;;;;;;14.18;8.70;;;;;;;;;;5040861;28;20041;-73
2022/07/03 10:58:29;;;;;;;13.10;9.00;;;;;;;;;;5052074;28;20064;-65
2022/07/03 11:00:58;;;;;;;12.35;8.27;;;;;;;;;;5052746;28;20098;-71
2022/07/03 11:03:42;;;;;;;10.38;7.78;;;;;;;;;;5052030;28;20045;-69
2022/07/03 11:06:09;;;;;;;7.70;6.93;;;;;;;;;;5038957;28;20041;-68
2022/07/03 11:08:56;;;;;;;10.85;6.57;;;;;;;;;;5043523;28;20068;-74
2022/07/03 11:11:54;;;;;;;10.65;7.30;;;;;;;;;;5052922;28;20025;-67
2022/07/03 11:14:21;;;;;;;9.73;7.35;;;;;;;;;;4954481;28;20039;-74
2022/07/03 11:16:47;;;;;;;12.13;7.38;;;;;;;;;;4953627;28;20031;-70
2022/07/03 11:19:13;;;;;;;10.20;7.78;;;;;;;;;;4962055;28;20073;-72
2022/07/03 11:21:42;;;;;;;10.23;7.40;;;;;;;;;;4993215;28;20461;-70
2022/07/03 11:24:17;;;;;;;9.40;6.95;;;;;;;;;;4992950;28;20042;-70
2022/07/03 11:26:43;;;;;;;18.23;15.93;;;;;;;;;;4993028;28;20026;-73
2022/07/03 11:29:25;;;;;;;26.30;20.88;;;;;;;;;;4992778;28;20488;-67
2022/07/03 11:31:51;;;;;;;9.55;7.75;;;;;;;;;;4992845;28;20108;-65
2022/07/03 11:34:21;;;;;;;14.05;12.57;;;;;;;;;;4993461;28;20558;-69
2022/07/03 11:36:47;;;;;;;18.35;13.13;;;;;;;;;;4992748;28;20058;-70
2022/07/03 11:39:14;;;;;;;46.38;41.45;;;;;;;;;;4992548;28;20512;-67
2022/07/03 11:41:40;;;;;;;17.60;15.55;;;;;;;;;;4992628;28;20093;-71
2022/07/03 11:44:07;;;;;;;58.17;37.55;;;;;;;;;;4992530;28;20178;-65
2022/07/03 11:46:34;;;;;;;39.10;30.45;;;;;;;;;;4992507;28;20074;-69
2022/07/03 11:49:06;;;;;;;30.45;23.88;;;;;;;;;;5000356;28;20077;-63
2022/07/03 11:51:33;;;;;;;25.05;19.63;;;;;;;;;;5053851;28;20099;-65
2022/07/03 11:53:59;;;;;;;22.90;17.52;;;;;;;;;;5053935;28;20106;-68
2022/07/03 11:56:25;;;;;;;26.48;15.57;;;;;;;;;;5053927;28;20060;-67
2022/07/03 11:58:52;;;;;;;16.17;10.20;;;;;;;;;;5053377;28;20029;-70
2022/07/03 12:01:27;;;;;;;18.27;11.93;;;;;;;;;;5053631;28;20017;-73
2022/07/03 12:03:53;;;;;;;10.82;7.15;;;;;;;;;;5054108;28;20082;-66
2022/07/03 12:06:20;;;;;;;17.10;9.43;;;;;;;;;;5054041;28;20021;-72
2022/07/03 12:08:47;;;;;;;14.88;10.70;;;;;;;;;;5053952;28;20036;-66
2022/07/03 12:11:13;;;;;;;15.50;9.73;;;;;;;;;;5053844;28;20036;-72
2022/07/03 12:13:40;;;;;;;13.00;8.88;;;;;;;;;;5054134;28;20375;-72
2022/07/03 12:16:07;;;;;;;9.02;7.82;;;;;;;;;;5053559;28;20032;-65
2022/07/03 12:18:44;;;;;;;11.98;9.15;;;;;;;;;;5053908;28;20128;-69
2022/07/03 12:21:10;;;;;;;9.60;8.70;;;;;;;;;;5053662;28;20032;-66
2022/07/03 12:23:46;;;;;;;9.52;8.55;;;;;;;;;;5054007;28;20401;-69
2022/07/03 12:26:13;;;;;;;11.35;8.45;;;;;;;;;;5053542;28;20025;-66
2022/07/03 12:28:39;;;;;;;12.25;7.78;;;;;;;;;;5053593;28;20040;-65
2022/07/03 12:31:05;;;;;;;9.52;8.05;;;;;;;;;;5053612;28;20041;-65
2022/07/03 12:33:35;;;;;;;12.25;8.55;;;;;;;;;;5053729;28;20031;-67
2022/07/03 12:36:09;;;;;;;11.70;9.07;;;;;;;;;;5053696;28;20021;-71
2022/07/03 12:38:40;;;;;;;8.60;7.20;;;;;;;;;;5053408;28;20027;-65
2022/07/03 12:41:07;;;;;;;12.52;8.32;;;;;;;;;;5053147;28;20120;-65
2022/07/03 12:43:40;;;;;;;9.98;8.48;;;;;;;;;;5086324;28;20048;-72
2022/07/03 12:46:26;;;;;;;10.93;8.45;;;;;;;;;;5093090;28;20549;-68
2022/07/03 12:48:53;;;;;;;10.18;8.95;;;;;;;;;;5093238;28;20032;-68
2022/07/03 12:51:38;;;;;;;9.95;8.40;;;;;;;;;;5093251;28;20420;-69
2022/07/03 12:54:05;;;;;;;7.72;7.03;;;;;;;;;;5093746;28;20028;-71
2022/07/03 12:56:31;;;;;;;8.93;8.00;;;;;;;;;;5093291;28;20035;-67
2022/07/03 13:01:41;;;;;;;11.00;8.50;;;;;;;;;;5093356;28;20031;-70
2022/07/03 13:04:08;;;;;;;9.98;8.60;;;;;;;;;;5093189;28;20024;-69
2022/07/03 13:06:34;;;;;;;12.02;8.20;;;;;;;;;;5093288;28;20024;-72
2022/07/03 13:09:01;;;;;;;15.27;8.15;;;;;;;;;;5092483;28;20085;-66
2022/07/03 13:11:29;;;;;;;11.25;8.15;;;;;;;;;;5092988;28;20024;-71
2022/07/03 13:14:03;;;;;;;8.70;7.70;;;;;;;;;;5093001;28;20020;-66
2022/07/03 13:16:29;;;;;;;9.35;8.45;;;;;;;;;;5092764;28;20105;-68
2022/07/03 13:19:02;;;;;;;12.27;8.77;;;;;;;;;;5092915;28;20027;-69
2022/07/03 13:21:29;;;;;;;9.60;8.43;;;;;;;;;;5092885;28;20021;-68
2022/07/03 13:23:56;;;;;;;9.05;8.07;;;;;;;;;;5092965;28;20032;-64
2022/07/03 13:26:22;;;;;;;11.75;8.45;;;;;;;;;;5092885;28;20035;-64
2022/07/03 13:28:49;;;;;;;12.50;8.82;;;;;;;;;;5093048;28;20122;-66
2022/07/03 13:31:15;;;;;;;10.32;9.23;;;;;;;;;;5092233;28;20096;-70
2022/07/03 13:33:41;;;;;;;11.20;8.60;;;;;;;;;;5092750;28;20106;-67
2022/07/03 13:36:07;;;;;;;9.82;8.82;;;;;;;;;;5092684;28;20020;-65
2022/07/03 13:38:33;;;;;;;9.95;8.90;;;;;;;;;;5092800;28;20027;-68
2022/07/03 13:41:00;;;;;;;11.38;8.90;;;;;;;;;;5092774;28;20115;-70
2022/07/03 13:43:26;;;;;;;11.50;9.32;;;;;;;;;;5092396;28;20571;-71
2022/07/03 13:45:52;;;;;;;9.45;8.50;;;;;;;;;;5092921;28;20066;-73
2022/07/03 13:48:18;;;;;;;11.15;9.25;;;;;;;;;;5074000;28;20413;-69
2022/07/03 13:50:44;;;;;;;10.00;8.98;;;;;;;;;;5092681;28;20016;-70
2022/07/03 13:53:10;;;;;;;12.93;8.40;;;;;;;;;;5092629;28;20020;-74
2022/07/03 13:55:36;;;;;;;10.85;9.80;;;;;;;;;;5092417;28;20025;-68
2022/07/03 13:58:04;;;;;;;9.32;8.30;;;;;;;;;;5092715;28;20032;-72
2022/07/03 14:00:30;;;;;;;9.85;8.85;;;;;;;;;;5092133;28;20020;-68
2022/07/03 14:02:57;;;;;;;10.60;8.30;;;;;;;;;;5092167;28;20028;-70
2022/07/03 14:05:23;;;;;;;10.30;8.70;;;;;;;;;;5092100;28;20110;-67
2022/07/03 14:07:49;;;;;;;11.52;8.60;;;;;;;;;;5092300;28;20051;-68
2022/07/03 14:10:15;;;;;;;10.00;8.38;;;;;;;;;;5092064;28;20085;-70
2022/07/03 14:12:42;;;;;;;10.15;8.75;;;;;;;;;;5092279;28;20367;-73
2022/07/03 14:15:08;;;;;;;9.10;8.15;;;;;;;;;;5091899;28;20020;-70
2022/07/03 14:17:34;;;;;;;10.90;8.82;;;;;;;;;;5091902;28;20024;-67
2022/07/03 14:20:00;;;;;;;12.18;8.93;;;;;;;;;;5092147;28;20470;-71
2022/07/03 14:22:26;;;;;;;10.15;8.07;;;;;;;;;;5095844;28;20039;-74
2022/07/03 14:24:53;;;;;;;10.30;8.45;;;;;;;;;;5095838;28;20039;-66
2022/07/03 14:32:49;;;;;;;10.13;8.75;;;;;;;;;;5095888;28;20078;-66
2022/07/03 14:35:15;;;;;;;10.40;8.45;;;;;;;;;;5095690;28;20024;-67
2022/07/03 14:37:41;;;;;;;10.60;9.32;;;;;;;;;;5095715;28;20056;-71
2022/07/03 14:40:07;;;;;;;10.07;8.10;;;;;;;;;;5095576;28;20020;-69
2022/07/03 14:42:33;;;;;;;11.48;8.65;;;;;;;;;;5095427;28;20040;-64
2022/07/03 14:44:59;;;;;;;10.25;9.13;;;;;;;;;;5095403;28;20028;-66
2022/07/03 14:47:25;;;;;;;12.07;7.85;;;;;;;;;;5095173;28;20508;-72
2022/07/03 14:49:52;;;;;;;10.63;8.60;;;;;;;;;;5095479;28;20389;-72
2022/07/03 14:52:18;;;;;;;10.10;8.90;;;;;;;;;;5095632;28;20066;-70
2022/07/03 14:54:44;;;;;;;9.40;8.45;;;;;;;;;;5095684;28;20050;-73
2022/07/03 14:57:34;;;;;;;10.38;8.60;;;;;;;;;;5095551;28;20012;-70
2022/07/03 15:00:06;;;;;;;10.17;8.57;;;;;;;;;;5095604;28;20024;-69
2022/07/03 15:02:34;;;;;;;9.35;8.52;;;;;;;;;;5095572;28;20032;-66
2022/07/03 15:05:10;;;;;;;10.82;8.70;;;;;;;;;;5095683;28;20044;-72